Time;durP1;ratioP1;P1;durP2;ratioP2;P2;SDS_P1;SDS_P2;PMS_P1;PMS_P2;Temp;Humidity;BMP_temperature;BMP_pressure;BME280_temperature;BME280_humidity;BME280_pressure;Samples;Min_cycle;Max_cycle;Signal;HPM_P1;HPM_P2
2023/03/13 00:02:21;;;;;;;7.40;3.43;;;;;;;6.95;100.00;153144.63;5053720;28;20447;-88
2023/03/13 00:04:48;;;;;;;8.20;4.40;;;;;;;7.06;100.00;153173.03;5057343;28;20443;-88
2023/03/13 00:07:16;;;;;;;5.37;3.77;;;;;;;7.10;100.00;153184.66;5054920;28;20845;-88
2023/03/13 00:09:42;;;;;;;6.07;3.60;;;;;;;7.11;100.00;153185.94;5015028;28;20477;-88
2023/03/13 00:12:09;;;;;;;6.00;4.20;;;;;;;7.10;100.00;153184.66;5045938;28;20460;-88
2023/03/13 00:14:36;;;;;;;7.53;4.10;;;;;;;7.06;100.00;153173.03;5035670;28;20531;-88
2023/03/13 00:17:03;;;;;;;9.10;5.40;;;;;;;7.00;100.00;153158.84;5029853;28;20452;-88
2023/03/13 00:19:29;;;;;;;5.17;3.83;;;;;;;7.00;100.00;153157.53;5045800;28;20488;-88
2023/03/13 00:21:56;;;;;;;7.47;5.10;;;;;;;6.98;100.00;153153.69;5043787;28;20496;-88
2023/03/13 00:24:24;;;;;;;5.37;4.27;;;;;;;6.98;100.00;153153.69;5013507;28;20457;-88
2023/03/13 00:26:51;;;;;;;8.13;4.63;;;;;;;6.95;100.00;153145.94;5045684;28;20504;-88
2023/03/13 00:29:18;;;;;;;11.33;5.53;;;;;;;6.94;100.00;153143.34;5017989;28;20448;-88
2023/03/13 00:31:44;;;;;;;5.93;4.20;;;;;;;6.93;100.00;153139.47;5040850;28;20453;-88
2023/03/13 00:34:11;;;;;;;7.03;3.83;;;;;;;6.91;100.00;153135.59;5031578;28;20575;-88
2023/03/13 00:36:38;;;;;;;6.40;3.90;;;;;;;6.92;100.00;153138.19;5048846;28;20507;-88
2023/03/13 00:39:06;;;;;;;9.67;3.87;;;;;;;6.88;100.00;153126.59;5060066;28;20471;-88
2023/03/13 00:41:36;;;;;;;7.00;3.43;;;;;;;6.86;100.00;153122.69;5049401;28;20808;-88
2023/03/13 00:44:05;;;;;;;4.57;2.77;;;;;;;6.89;100.00;153129.13;5006418;28;20477;-88
2023/03/13 00:46:31;;;;;;;3.13;2.83;;;;;;;6.89;100.00;153129.13;5012273;28;20507;-88
2023/03/13 00:48:58;;;;;;;9.63;4.73;;;;;;;6.88;100.00;153127.88;5043099;28;20519;-87
2023/03/13 00:51:26;;;;;;;6.97;3.70;;;;;;;6.85;100.00;153120.13;5049753;28;20428;-87
2023/03/13 00:53:53;;;;;;;4.50;3.07;;;;;;;6.85;100.00;153120.13;5046340;28;20478;-87
2023/03/13 00:56:20;;;;;;;7.10;3.67;;;;;;;6.84;100.00;153116.22;5048446;28;20542;-88
2023/03/13 00:58:49;;;;;;;7.30;3.97;;;;;;;6.88;100.00;153126.59;5034228;28;20479;-88
2023/03/13 01:01:19;;;;;;;7.63;3.87;;;;;;;6.91;100.00;153134.34;5015912;28;20448;-88
2023/03/13 01:03:47;;;;;;;5.30;3.63;;;;;;;6.92;100.00;153138.19;5049856;28;20479;-88
2023/03/13 01:06:16;;;;;;;6.20;3.10;;;;;;;6.92;100.00;153136.88;5030917;28;20962;-88
2023/03/13 01:08:42;;;;;;;6.17;3.40;;;;;;;6.89;100.00;153130.44;5058464;28;20481;-88
2023/03/13 01:11:11;;;;;;;7.83;3.80;;;;;;;6.88;100.00;153126.59;5052495;28;20439;-88
2023/03/13 01:13:38;;;;;;;5.80;3.67;;;;;;;6.87;100.00;153123.97;5072456;28;20454;-88
2023/03/13 01:16:08;;;;;;;5.90;3.10;;;;;;;6.88;100.00;153126.59;5053152;28;20444;-89
2023/03/13 01:18:36;;;;;;;4.83;2.90;;;;;;;6.91;100.00;153134.34;5070920;28;20478;-88
2023/03/13 01:21:03;;;;;;;5.43;3.43;;;;;;;6.94;100.00;153143.34;5038085;28;20848;-88
2023/03/13 01:23:29;;;;;;;7.00;3.07;;;;;;;6.96;100.00;153147.25;5073617;28;20964;-88
2023/03/13 01:25:57;;;;;;;7.20;3.40;;;;;;;6.95;100.00;153145.94;5066599;28;20450;-88
2023/03/13 01:28:24;;;;;;;5.87;3.60;;;;;;;6.98;100.00;153152.38;5061844;28;20453;-88
2023/03/13 01:30:51;;;;;;;7.10;3.13;;;;;;;7.02;100.00;153164.00;5046793;28;20458;-88
2023/03/13 01:33:19;;;;;;;6.37;3.03;;;;;;;6.99;100.00;153156.25;5074727;28;20454;-88
2023/03/13 01:35:47;;;;;;;4.80;2.90;;;;;;;7.05;100.00;153170.44;5072868;28;20465;-88
2023/03/13 01:38:14;;;;;;;5.93;2.33;;;;;;;7.05;100.00;153171.75;5055590;28;20858;-88
2023/03/13 01:40:42;;;;;;;5.30;2.73;;;;;;;7.07;100.00;153176.91;5071915;28;20504;-88
2023/03/13 01:43:20;;;;;;;8.43;3.47;;;;;;;7.07;100.00;153175.66;5054121;28;20508;-88
2023/03/13 01:45:59;;;;;;;5.17;2.17;;;;;;;7.12;100.00;153189.81;5073281;28;20449;-88
2023/03/13 01:48:36;;;;;;;5.33;2.40;;;;;;;7.15;100.00;153197.56;5082759;28;20492;-88
2023/03/13 01:51:07;;;;;;;4.40;2.50;;;;;;;7.21;100.00;153211.78;5047342;28;20468;-88
2023/03/13 01:53:35;;;;;;;3.43;2.20;;;;;;;7.23;100.00;153218.22;5071629;28;20791;-88
2023/03/13 01:56:06;;;;;;;7.27;2.60;;;;;;;7.26;100.00;153225.97;5054335;28;20458;-88
2023/03/13 01:58:33;;;;;;;6.83;2.50;;;;;;;7.27;100.00;153228.56;5049795;28;20435;-88
2023/03/13 02:01:00;;;;;;;5.00;2.23;;;;;;;7.29;100.00;153233.72;5057341;28;20439;-88
2023/03/13 02:03:28;;;;;;;2.97;1.70;;;;;;;7.36;100.00;153250.50;5070579;28;20446;-88
2023/03/13 02:05:57;;;;;;;4.17;1.83;;;;;;;7.40;100.00;153259.53;5057571;28;20458;-88
2023/03/13 02:08:26;;;;;;;3.47;1.90;;;;;;;7.42;100.00;153264.69;5047499;28;20940;-87
2023/03/13 02:10:56;;;;;;;6.20;2.80;;;;;;;7.44;100.00;153269.91;5078304;28;20518;-88
2023/03/13 02:13:23;;;;;;;4.77;1.80;;;;;;;7.45;100.00;153273.75;5033545;28;20848;-88
2023/03/13 02:15:49;;;;;;;4.97;2.00;;;;;;;7.44;100.00;153269.91;5076508;28;20447;-88
2023/03/13 02:18:17;;;;;;;3.70;1.80;;;;;;;7.46;100.00;153275.06;5044071;28;20451;-88
2023/03/13 02:20:45;;;;;;;3.23;1.70;;;;;;;7.43;100.00;153267.31;5044741;28;20474;-88
2023/03/13 02:23:19;;;;;;;4.27;2.40;;;;;;;7.46;100.00;153275.06;5048563;28;20457;-88
2023/03/13 02:25:49;;;;;;;6.43;2.30;;;;;;;7.44;100.00;153271.16;5057488;28;20536;-88
2023/03/13 02:28:22;;;;;;;5.93;2.50;;;;;;;7.43;100.00;153267.31;5026210;28;20548;-89
2023/03/13 02:30:50;;;;;;;7.70;2.27;;;;;;;7.42;100.00;153264.69;5069762;28;20498;-88
2023/03/13 02:33:18;;;;;;;4.40;2.57;;;;;;;7.40;100.00;153259.53;5053929;28;20454;-88
2023/03/13 02:35:46;;;;;;;3.93;2.40;;;;;;;7.35;100.00;153247.94;5046198;28;20478;-88
2023/03/13 02:38:19;;;;;;;3.20;2.07;;;;;;;7.34;100.00;153245.34;5043498;28;20896;-88
2023/03/13 02:40:49;;;;;;;6.30;2.50;;;;;;;7.27;100.00;153228.56;5054809;28;20463;-88
2023/03/13 02:43:19;;;;;;;3.77;2.00;;;;;;;7.26;100.00;153225.97;5051172;28;20908;-89
2023/03/13 02:46:01;;;;;;;5.17;2.17;;;;;;;7.26;100.00;153225.97;5059472;28;20431;-88
2023/03/13 02:48:32;;;;;;;4.60;2.30;;;;;;;7.27;100.00;153228.56;5029921;28;20442;-88
2023/03/13 02:51:00;;;;;;;3.77;1.77;;;;;;;7.31;100.00;153238.88;5043162;28;20521;-89
2023/03/13 02:53:26;;;;;;;4.50;2.10;;;;;;;7.36;100.00;153251.78;5034440;28;20490;-88
2023/03/13 02:55:55;;;;;;;2.73;1.50;;;;;;;7.42;100.00;153266.00;5070877;28;20694;-87
2023/03/13 02:58:23;;;;;;;4.07;1.87;;;;;;;7.48;100.00;153281.50;5041288;28;20457;-87
2023/03/13 03:00:50;;;;;;;3.47;1.63;;;;;;;7.57;100.00;153303.47;5068874;28;20848;-89
2023/03/13 03:03:17;;;;;;;6.50;1.90;;;;;;;7.62;100.00;153316.41;5059711;28;20543;-89
2023/03/13 03:05:44;;;;;;;2.20;1.57;;;;;;;7.67;100.00;153330.59;5061236;28;20445;-89
2023/03/13 03:08:11;;;;;;;3.90;1.70;;;;;;;7.71;100.00;153339.63;5067877;28;20441;-88
2023/03/13 03:10:38;;;;;;;2.60;1.37;;;;;;;7.76;100.00;153352.53;5056459;28;20497;-87
2023/03/13 03:13:06;;;;;;;3.30;1.93;;;;;;;7.79;100.00;153361.59;5042361;28;20434;-87
2023/03/13 03:15:33;;;;;;;2.37;1.10;;;;;;;7.78;100.00;153357.72;5040394;28;20442;-87
2023/03/13 03:18:00;;;;;;;3.80;1.43;;;;;;;7.79;100.00;153360.28;5038914;28;20478;-88
2023/03/13 03:20:26;;;;;;;3.80;1.50;;;;;;;7.83;100.00;153371.94;5073180;28;20496;-89
2023/03/13 03:22:53;;;;;;;3.40;1.30;;;;;;;7.92;100.00;153393.88;5057625;28;20469;-88
2023/03/13 03:25:21;;;;;;;4.50;1.90;;;;;;;7.93;100.00;153397.78;5044552;28;20543;-88
2023/03/13 03:27:48;;;;;;;2.47;1.30;;;;;;;8.00;100.00;153414.53;5062352;28;20500;-89
2023/03/13 03:30:19;;;;;;;3.77;1.37;;;;;;;7.98;100.00;153409.41;5056631;28;20448;-89
2023/03/13 03:32:46;;;;;;;5.20;2.13;;;;;;;7.98;100.00;153409.41;5054973;28;20489;-90
2023/03/13 03:35:12;;;;;;;3.13;1.50;;;;;;;7.98;100.00;153410.69;5077896;28;20768;-90
2023/03/13 03:37:39;;;;;;;3.80;1.30;;;;;;;7.95;100.00;153401.63;5041833;28;20451;-87
2023/03/13 03:40:08;;;;;;;2.37;1.43;;;;;;;7.93;100.00;153396.47;5057121;28;20482;-89
2023/03/13 03:42:35;;;;;;;1.70;1.20;;;;;;;7.93;100.00;153397.78;5055428;28;20470;-88
2023/03/13 03:45:02;;;;;;;3.10;1.43;;;;;;;7.94;100.00;153399.09;5057047;28;20474;-88
2023/03/13 03:47:31;;;;;;;3.67;1.57;;;;;;;7.97;100.00;153406.78;5081311;28;20454;-89
2023/03/13 03:50:00;;;;;;;3.23;1.60;;;;;;;7.98;100.00;153409.41;5054103;28;20548;-89
2023/03/13 03:52:26;;;;;;;1.50;1.20;;;;;;;8.04;100.00;153423.63;5062689;28;20430;-89
2023/03/13 03:54:53;;;;;;;4.27;1.77;;;;;;;8.08;100.00;153433.94;5044289;28;20438;-89
2023/03/13 03:57:20;;;;;;;2.30;1.30;;;;;;;8.15;100.00;153453.34;5072165;28;20529;-89
2023/03/13 03:59:47;;;;;;;1.70;1.20;;;;;;;8.17;100.00;153457.19;5090383;28;20482;-89
2023/03/13 04:02:14;;;;;;;1.90;1.07;;;;;;;8.25;100.00;153479.19;5041658;28;21082;-89
2023/03/13 04:04:43;;;;;;;1.77;1.00;;;;;;;8.31;100.00;153493.47;5076843;28;20462;-89
2023/03/13 04:07:14;;;;;;;2.40;1.07;;;;;;;8.34;100.00;153502.47;5065408;28;20446;-89
2023/03/13 04:09:41;;;;;;;1.67;1.07;;;;;;;8.42;100.00;153521.84;5089175;28;20470;-89
2023/03/13 04:12:11;;;;;;;2.53;1.00;;;;;;;8.47;100.00;153536.06;5047151;28;20426;-88
2023/03/13 04:14:42;;;;;;;1.87;0.90;;;;;;;8.47;100.00;153536.06;5057019;28;20473;-90
2023/03/13 04:17:11;;;;;;;3.70;1.00;;;;;;;8.63;100.00;153574.88;5067980;28;20462;-88
2023/03/13 04:19:38;;;;;;;2.80;1.10;;;;;;;8.69;100.00;153590.38;5047755;28;20478;-89
2023/03/13 04:22:07;;;;;;;1.47;0.80;;;;;;;8.68;100.00;153587.81;5063365;28;20457;-89
2023/03/13 04:24:34;;;;;;;5.77;1.50;;;;;;;8.82;100.00;153625.28;5049075;28;20461;-89
2023/03/13 04:27:02;;;;;;;1.30;0.80;;;;;;;8.87;100.00;153636.94;5044104;28;20450;-89
2023/03/13 04:29:29;;;;;;;1.20;0.80;;;;;;;8.87;100.00;153638.22;5081633;28;20548;-88
2023/03/13 04:32:03;;;;;;;1.10;0.80;;;;;;;8.93;100.00;153652.44;5034258;28;20458;-89
2023/03/13 04:34:39;;;;;;;1.57;0.90;;;;;;;9.00;100.00;153670.56;5057975;28;20453;-89
2023/03/13 04:37:27;;;;;;;3.67;1.07;;;;;;;9.00;100.00;153670.56;5068237;28;20443;-90
2023/03/13 04:40:20;;;;;;;4.00;0.93;;;;;;;9.11;100.00;153698.97;5055407;28;20496;-89
2023/03/13 04:42:53;;;;;;;1.80;0.87;;;;;;;9.19;100.00;153719.69;5050631;28;20454;-89
2023/03/13 04:45:38;;;;;;;1.10;0.70;;;;;;;9.28;100.00;153742.97;5042545;28;20473;-89
2023/03/13 04:48:37;;;;;;;1.00;0.60;;;;;;;9.22;100.00;153726.13;5030084;28;20549;-89
2023/03/13 04:51:25;;;;;;;2.10;0.83;;;;;;;9.29;100.00;153744.28;5054991;28;20427;-89
2023/03/13 04:54:12;;;;;;;1.10;0.77;;;;;;;9.29;100.00;153744.28;5071417;28;20499;-89
2023/03/13 04:57:08;;;;;;;2.10;0.93;;;;;;;9.36;100.00;153762.38;5060910;28;20445;-88
2023/03/13 04:59:40;;;;;;;2.20;1.07;;;;;;;9.37;100.00;153766.22;5071348;28;20479;-89
2023/03/13 05:02:06;;;;;;;1.40;0.77;;;;;;;9.38;100.00;153767.53;5067684;28;20541;-88
2023/03/13 05:04:48;;;;;;;1.80;0.70;;;;;;;9.39;100.00;153771.44;5059699;28;20447;-89
2023/03/13 05:07:30;;;;;;;1.63;0.80;;;;;;;9.42;100.00;153779.22;5047032;28;20545;-89
2023/03/13 05:10:17;;;;;;;2.03;0.90;;;;;;;9.42;100.00;153779.22;5077069;28;20832;-89
2023/03/13 05:13:04;;;;;;;1.13;0.70;;;;;;;9.42;100.00;153777.91;5039799;28;21191;-89
2023/03/13 05:15:50;;;;;;;1.53;0.83;;;;;;;9.43;100.00;153781.75;5062383;28;20435;-89
2023/03/13 05:18:35;;;;;;;1.27;0.87;;;;;;;9.41;100.00;153775.31;5049282;28;20443;-89
2023/03/13 05:21:12;;;;;;;1.87;0.60;;;;;;;9.42;100.00;153779.22;5056627;28;20474;-89
2023/03/13 05:24:11;;;;;;;2.10;0.90;;;;;;;9.46;100.00;153788.22;5048703;28;20535;-89
2023/03/13 05:26:54;;;;;;;1.10;0.70;;;;;;;9.45;100.00;153785.69;5051680;28;20482;-88
2023/03/13 05:29:24;;;;;;;2.70;0.60;;;;;;;9.40;100.00;153774.00;5065835;28;20442;-89
2023/03/13 05:32:15;;;;;;;1.50;0.80;;;;;;;9.40;100.00;153774.00;5062452;28;20449;-89
2023/03/13 05:34:42;;;;;;;2.00;1.00;;;;;;;9.41;100.00;153775.31;5076306;28;20935;-89
2023/03/13 05:37:23;;;;;;;2.50;0.80;;;;;;;9.45;100.00;153786.94;5047785;28;20435;-89
2023/03/13 05:40:05;;;;;;;1.30;0.47;;;;;;;9.59;100.00;153823.16;5086969;28;20482;-90
2023/03/13 05:42:54;;;;;;;1.13;0.67;;;;;;;9.57;100.00;153818.00;5056842;28;20449;-88
2023/03/13 05:45:44;;;;;;;2.53;1.30;;;;;;;9.60;100.00;153825.78;5050184;28;20458;-88
2023/03/13 05:48:30;;;;;;;1.93;0.73;;;;;;;9.53;100.00;153807.63;5052164;28;20795;-89
2023/03/13 05:51:20;;;;;;;1.10;0.70;;;;;;;9.55;100.00;153812.84;5089234;28;20440;-88
2023/03/13 05:53:55;;;;;;;1.53;0.73;;;;;;;9.53;100.00;153807.63;5049979;28;20463;-89
2023/03/13 05:56:40;;;;;;;1.70;0.57;;;;;;;9.54;100.00;153810.25;5071101;28;20426;-88
2023/03/13 05:59:35;;;;;;;1.00;0.50;;;;;;;9.55;100.00;153812.84;5040391;28;20450;-88
2023/03/13 06:02:24;;;;;;;1.57;0.67;;;;;;;9.63;100.00;153832.25;5052286;28;20446;-88
2023/03/13 06:04:51;;;;;;;1.60;1.00;;;;;;;9.61;100.00;153828.34;5061892;28;20462;-89
2023/03/13 06:07:18;;;;;;;1.03;0.60;;;;;;;9.66;100.00;153840.00;5042998;28;20545;-89
2023/03/13 06:09:45;;;;;;;1.17;0.80;;;;;;;9.63;100.00;153833.53;5059046;28;20478;-89
2023/03/13 06:12:13;;;;;;;1.10;0.70;;;;;;;9.66;100.00;153840.00;5036888;28;20450;-88
2023/03/13 06:14:41;;;;;;;0.90;0.50;;;;;;;9.70;100.00;153850.34;5081932;28;20462;-89
2023/03/13 06:17:14;;;;;;;1.00;0.80;;;;;;;9.68;100.00;153846.47;5071731;28;20442;-89
2023/03/13 06:19:40;;;;;;;1.00;0.60;;;;;;;9.66;100.00;153841.25;5052859;28;20519;-89
2023/03/13 06:22:07;;;;;;;1.13;0.63;;;;;;;9.73;100.00;153858.09;5067397;28;20454;-89
2023/03/13 06:24:34;;;;;;;0.90;0.50;;;;;;;9.80;100.00;153877.50;5061818;28;20529;-90
2023/03/13 06:27:01;;;;;;;2.23;1.00;;;;;;;9.86;100.00;153890.44;5052066;28;20447;-89
2023/03/13 06:29:27;;;;;;;2.10;0.73;;;;;;;9.88;100.00;153896.91;5061314;28;20438;-90
2023/03/13 06:31:56;;;;;;;1.80;0.93;;;;;;;9.92;100.00;153907.28;5065002;28;20500;-90
2023/03/13 06:34:22;;;;;;;1.63;1.20;;;;;;;9.98;100.00;153921.53;5048884;28;20465;-89
2023/03/13 06:36:49;;;;;;;1.47;0.80;;;;;;;9.99;100.00;153924.09;5064766;28;20841;-89
2023/03/13 06:39:16;;;;;;;2.93;1.80;;;;;;;10.07;100.00;153944.81;5060601;28;20447;-90
2023/03/13 06:41:42;;;;;;;2.20;1.90;;;;;;;10.08;100.00;153947.41;5061102;28;20470;-90
2023/03/13 06:44:09;;;;;;;2.47;1.27;;;;;;;10.10;100.00;153953.88;5041661;28;20537;-90
2023/03/13 06:46:36;;;;;;;1.70;1.00;;;;;;;10.11;100.00;153955.19;5045877;28;20486;-89
2023/03/13 06:49:04;;;;;;;1.67;1.10;;;;;;;10.13;100.00;153960.41;5049577;28;20477;-90
2023/03/13 06:51:32;;;;;;;1.20;0.80;;;;;;;10.17;100.00;153970.72;5064510;28;20916;-90
2023/03/13 06:53:58;;;;;;;1.63;1.07;;;;;;;10.18;100.00;153974.63;5042304;28;20508;-90
2023/03/13 06:56:26;;;;;;;2.53;0.80;;;;;;;10.27;100.00;153996.66;5059668;28;20439;-89
2023/03/13 06:58:53;;;;;;;3.00;0.60;;;;;;;10.28;100.00;153999.22;5063961;28;20447;-90
2023/03/13 07:01:19;;;;;;;1.50;0.50;;;;;;;10.35;100.00;154018.63;5062013;28;20552;-90
2023/03/13 07:03:47;;;;;;;1.40;0.70;;;;;;;10.40;100.00;154030.31;5048001;28;20999;-90
2023/03/13 07:06:17;;;;;;;1.17;0.77;;;;;;;10.38;100.00;154025.09;5063774;28;20541;-89
2023/03/13 07:08:44;;;;;;;1.00;0.67;;;;;;;10.35;100.00;154018.63;5062348;28;21023;-90
2023/03/13 07:11:12;;;;;;;1.00;0.43;;;;;;;10.28;100.00;153999.22;5062801;28;20445;-90
2023/03/13 07:13:39;;;;;;;2.30;0.70;;;;;;;10.25;100.00;153991.44;5064554;28;20460;-90
2023/03/13 07:16:08;;;;;;;1.73;0.60;;;;;;;10.27;100.00;153997.91;5053142;28;20477;-89
2023/03/13 07:18:35;;;;;;;1.10;0.63;;;;;;;10.33;100.00;154012.16;5066676;28;21937;-90
2023/03/13 07:21:04;;;;;;;1.13;0.70;;;;;;;10.37;100.00;154022.53;5071136;28;20467;-90
2023/03/13 07:23:34;;;;;;;1.97;1.10;;;;;;;10.40;100.00;154030.31;5066851;28;20452;-90
2023/03/13 07:26:02;;;;;;;2.57;1.10;;;;;;;10.34;100.00;154016.06;5071158;28;20443;-90
2023/03/13 07:28:30;;;;;;;1.73;1.40;;;;;;;10.37;100.00;154022.53;5062676;28;20913;-90
2023/03/13 07:31:04;;;;;;;1.40;0.87;;;;;;;10.40;100.00;154030.31;5047077;28;20458;-89
2023/03/13 07:33:30;;;;;;;1.60;0.77;;;;;;;10.43;100.00;154036.78;5062251;28;20654;-90
2023/03/13 07:35:57;;;;;;;2.77;0.80;;;;;;;10.50;100.00;154054.88;5064642;28;20509;-90
2023/03/13 07:38:24;;;;;;;1.40;0.90;;;;;;;10.53;100.00;154062.66;5064198;28;20546;-90
2023/03/13 07:40:53;;;;;;;1.10;0.63;;;;;;;10.56;100.00;154071.75;5073038;28;21086;-89
2023/03/13 07:43:21;;;;;;;1.33;0.90;;;;;;;10.51;100.00;154058.75;5051319;28;20508;-89
2023/03/13 07:45:52;;;;;;;1.63;0.87;;;;;;;10.50;100.00;154056.19;5061784;28;20496;-90
2023/03/13 07:48:19;;;;;;;1.50;0.87;;;;;;;10.55;100.00;154069.13;5063939;28;20520;-89
2023/03/13 07:50:46;;;;;;;0.90;0.70;;;;;;;10.54;100.00;154066.53;5064156;28;20454;-90
2023/03/13 07:53:13;;;;;;;1.10;0.60;;;;;;;10.57;100.00;154073.00;5046106;28;20455;-90
2023/03/13 07:55:39;;;;;;;1.63;1.03;;;;;;;10.62;100.00;154085.94;5049189;28;20445;-90
2023/03/13 07:58:07;;;;;;;1.40;1.00;;;;;;;10.63;100.00;154088.56;5064879;28;20573;-90
2023/03/13 08:00:34;;;;;;;1.40;0.80;;;;;;;10.63;100.00;154089.84;5064953;28;20980;-89
2023/03/13 08:03:03;;;;;;;1.20;0.73;;;;;;;10.62;100.00;154087.25;5050629;28;20455;-90
2023/03/13 08:05:30;;;;;;;0.93;0.60;;;;;;;10.65;100.00;154095.03;5061512;28;20443;-91
2023/03/13 08:07:57;;;;;;;1.10;0.50;;;;;;;10.70;100.00;154106.66;5043475;28;20478;-90
2023/03/13 08:10:23;;;;;;;1.70;1.40;;;;;;;10.72;100.00;154113.13;5053284;28;20469;-90
2023/03/13 08:12:50;;;;;;;2.00;1.67;;;;;;;10.79;100.00;154131.28;5025773;28;20450;-89
2023/03/13 08:15:24;;;;;;;1.80;1.10;;;;;;;10.91;100.00;154162.34;5037560;28;20476;-89
2023/03/13 08:17:51;;;;;;;2.70;1.13;;;;;;;11.06;100.00;154198.63;5027614;28;20808;-90
2023/03/13 08:20:18;;;;;;;1.47;1.03;;;;;;;11.11;100.00;154211.59;5026134;28;20479;-90
2023/03/13 08:22:46;;;;;;;1.57;0.77;;;;;;;11.17;100.00;154227.16;5041398;28;20463;-89
2023/03/13 08:25:13;;;;;;;1.23;0.90;;;;;;;11.23;100.00;154242.66;5048315;28;20452;-89
2023/03/13 08:27:39;;;;;;;1.70;1.00;;;;;;;11.32;100.00;154266.00;5040315;28;20448;-89
2023/03/13 08:30:08;;;;;;;1.40;1.00;;;;;;;11.39;100.00;154284.13;5028872;28;20459;-90
2023/03/13 08:32:36;;;;;;;1.30;0.97;;;;;;;11.48;100.00;154307.47;5037437;28;20548;-90
2023/03/13 08:35:04;;;;;;;2.03;1.20;;;;;;;11.56;100.00;154329.50;5024645;28;20511;-90
2023/03/13 08:37:30;;;;;;;2.27;1.30;;;;;;;11.65;100.00;154350.22;5023128;28;20606;-90
2023/03/13 08:39:57;;;;;;;1.40;0.90;;;;;;;11.77;100.00;154382.66;5055151;28;20517;-90
2023/03/13 08:42:24;;;;;;;1.43;0.83;;;;;;;11.84;100.00;154400.78;5028228;28;20471;-89
2023/03/13 08:44:51;;;;;;;1.60;1.00;;;;;;;11.98;100.00;154435.81;5020181;28;20464;-90
2023/03/13 08:47:18;;;;;;;2.13;1.43;;;;;;;12.09;100.00;154465.63;5010784;28;20449;-89
2023/03/13 08:49:46;;;;;;;1.40;0.90;;;;;;;12.17;100.00;154486.38;5018622;28;20518;-91
2023/03/13 08:52:13;;;;;;;1.80;1.27;;;;;;;12.17;100.00;154486.38;5019855;28;20943;-88
2023/03/13 08:54:39;;;;;;;1.10;0.73;;;;;;;12.14;100.00;154477.28;5054497;28;20473;-90
2023/03/13 08:57:06;;;;;;;1.27;0.90;;;;;;;12.10;100.00;154468.19;5035613;28;20556;-89
2023/03/13 08:59:33;;;;;;;2.20;1.10;;;;;;;12.13;100.00;154475.97;5037247;28;20556;-89
2023/03/13 09:02:00;;;;;;;2.30;1.20;;;;;;;12.15;100.00;154481.16;5021317;28;20479;-89
2023/03/13 09:04:26;;;;;;;2.43;0.90;;;;;;;12.17;100.00;154486.38;5024063;28;20457;-87
2023/03/13 09:06:55;;;;;;;1.83;1.10;;;;;;;12.13;100.00;154475.97;5043873;28;21021;-88
2023/03/13 09:09:21;;;;;;;1.47;0.90;;;;;;;12.13;100.00;154475.97;5041675;28;20837;-88
2023/03/13 09:11:48;;;;;;;1.60;1.00;;;;;;;12.21;100.00;154496.72;5033011;28;20533;-88
2023/03/13 09:14:15;;;;;;;1.70;1.00;;;;;;;12.24;100.00;154503.19;5052062;28;20463;-88
2023/03/13 09:16:42;;;;;;;1.67;0.97;;;;;;;12.30;100.00;154517.47;5049946;28;20445;-88
2023/03/13 09:19:08;;;;;;;1.63;1.03;;;;;;;12.33;100.00;154525.25;5033256;28;20492;-88
2023/03/13 09:21:36;;;;;;;1.40;1.00;;;;;;;12.37;100.00;154535.59;5027629;28;20571;-89
2023/03/13 09:24:04;;;;;;;1.37;0.90;;;;;;;12.43;100.00;154551.19;5049909;28;20479;-90
2023/03/13 09:26:31;;;;;;;2.43;1.30;;;;;;;12.51;100.00;154571.94;5035557;28;20611;-90
2023/03/13 09:28:58;;;;;;;2.13;1.30;;;;;;;12.55;100.00;154582.34;5042473;28;20468;-89
2023/03/13 09:31:26;;;;;;;1.60;1.00;;;;;;;12.53;100.00;154577.09;5016088;28;20790;-89
2023/03/13 09:33:53;;;;;;;1.50;1.00;;;;;;;12.50;100.00;154570.63;5036620;28;20466;-90
2023/03/13 09:36:22;;;;;;;2.60;1.00;;;;;;;12.56;100.00;154584.91;5027433;28;21084;-90
2023/03/13 09:38:49;;;;;;;3.53;1.10;;;;;;;12.64;100.00;154605.66;5028493;28;20463;-90
2023/03/13 09:41:25;;;;;;;3.00;1.20;;;;;;;12.70;100.00;154622.53;5045173;28;20478;-90
2023/03/13 09:43:55;;;;;;;2.33;1.17;;;;;;;12.74;100.00;154631.56;5021962;28;20485;-90
2023/03/13 09:46:25;;;;;;;1.70;1.27;;;;;;;12.73;100.00;154630.28;5033515;28;20530;-90
2023/03/13 09:48:56;;;;;;;1.77;1.30;;;;;;;12.87;100.00;154665.28;5052716;28;20451;-89
2023/03/13 09:51:26;;;;;;;5.13;1.20;;;;;;;12.91;100.00;154675.69;5054764;28;20475;-90
2023/03/13 09:53:56;;;;;;;1.73;1.17;;;;;;;13.01;100.00;154701.63;5051842;28;20902;-90
2023/03/13 09:56:26;;;;;;;2.43;1.00;;;;;;;13.05;99.23;154710.72;5048600;28;20444;-90
2023/03/13 09:58:55;;;;;;;1.90;1.13;;;;;;;13.16;98.58;154739.28;5020010;28;20456;-89
2023/03/13 10:01:25;;;;;;;1.90;1.20;;;;;;;13.24;100.00;154761.34;5033996;28;20478;-90
2023/03/13 10:03:59;;;;;;;1.50;1.03;;;;;;;13.33;100.00;154783.44;5045231;28;20495;-90
2023/03/13 10:06:28;;;;;;;3.33;1.40;;;;;;;13.40;98.53;154802.88;5039954;28;20446;-90
2023/03/13 10:09:00;;;;;;;2.37;1.67;;;;;;;13.61;99.55;154854.81;5049250;28;20516;-89
2023/03/13 10:11:33;;;;;;;1.70;1.17;;;;;;;13.70;97.11;154878.16;5035475;28;20986;-90
2023/03/13 10:14:04;;;;;;;3.10;1.20;;;;;;;13.90;94.92;154930.06;5036068;28;20461;-89
2023/03/13 10:16:34;;;;;;;2.70;1.30;;;;;;;14.06;93.92;154971.59;5034613;28;20807;-88
2023/03/13 10:19:11;;;;;;;2.53;1.47;;;;;;;14.15;92.46;154995.00;5012700;28;20565;-89
2023/03/13 10:21:39;;;;;;;2.20;1.53;;;;;;;14.29;93.25;155030.06;5017579;28;20534;-89
2023/03/13 10:24:14;;;;;;;2.53;1.30;;;;;;;14.37;90.21;155050.88;5041262;28;20489;-90
2023/03/13 10:26:42;;;;;;;1.93;1.30;;;;;;;14.45;90.40;155072.97;5027135;28;20548;-89
2023/03/13 10:29:20;;;;;;;2.97;1.80;;;;;;;14.45;88.00;155071.69;5023838;28;20455;-89
2023/03/13 10:31:55;;;;;;;2.20;1.50;;;;;;;14.46;88.42;155075.53;5027781;28;21062;-89
2023/03/13 10:34:22;;;;;;;3.00;1.77;;;;;;;14.40;89.91;155058.69;5036915;28;20449;-89
2023/03/13 10:36:55;;;;;;;2.70;1.50;;;;;;;14.46;91.70;155075.53;5032582;28;20447;-89
2023/03/13 10:39:24;;;;;;;2.70;1.90;;;;;;;14.62;89.18;155117.09;5039376;28;20950;-89
2023/03/13 10:41:57;;;;;;;2.60;1.60;;;;;;;14.63;89.39;155119.72;5019052;28;20461;-89
2023/03/13 10:44:31;;;;;;;2.43;1.60;;;;;;;14.67;91.99;155127.53;5038885;28;20452;-88
2023/03/13 10:47:00;;;;;;;2.57;1.60;;;;;;;14.64;87.25;155121.00;5038321;28;20441;-88
2023/03/13 10:49:31;;;;;;;2.30;1.30;;;;;;;14.66;89.21;155124.91;5018671;28;20459;-89
2023/03/13 10:51:59;;;;;;;2.90;1.30;;;;;;;14.73;87.34;155143.09;5039086;28;20758;-88
2023/03/13 10:54:27;;;;;;;1.83;1.47;;;;;;;14.80;89.26;155162.56;5034349;28;20466;-88
2023/03/13 10:57:26;;;;;;;1.90;1.67;;;;;;;14.82;89.57;155166.47;5035921;28;20991;-88
2023/03/13 10:59:54;;;;;;;3.77;1.70;;;;;;;14.92;86.14;155192.47;5020088;28;20473;-88
2023/03/13 11:02:35;;;;;;;2.77;1.60;;;;;;;14.91;89.05;155189.84;5038927;28;20815;-87
2023/03/13 11:05:03;;;;;;;4.10;2.20;;;;;;;14.88;85.71;155182.09;5052761;28;20449;-88
2023/03/13 11:07:33;;;;;;;2.10;1.30;;;;;;;14.95;85.83;155201.56;5001024;28;20470;-88
2023/03/13 11:10:01;;;;;;;3.30;1.80;;;;;;;14.97;86.63;155206.75;5064261;28;20530;-89
2023/03/13 11:12:35;;;;;;;2.63;2.07;;;;;;;15.05;85.29;155226.22;5076676;28;20449;-88
2023/03/13 11:15:19;;;;;;;3.13;1.73;;;;;;;15.15;85.93;155252.22;5080156;28;20533;-87
2023/03/13 11:17:49;;;;;;;2.30;1.90;;;;;;;15.17;89.30;155257.41;5075293;28;20498;-88
2023/03/13 11:20:23;;;;;;;4.00;2.03;;;;;;;15.14;91.21;155250.91;5048689;28;20539;-88
2023/03/13 11:22:55;;;;;;;3.20;1.60;;;;;;;15.27;90.43;155282.13;5060448;28;20468;-88
2023/03/13 11:25:32;;;;;;;2.10;1.50;;;;;;;15.34;83.94;155301.59;5061871;28;20555;-89
2023/03/13 11:28:11;;;;;;;2.90;1.80;;;;;;;15.48;88.16;155338.06;5057413;28;20456;-88
2023/03/13 11:30:49;;;;;;;2.77;1.60;;;;;;;15.56;86.28;155358.84;5043133;28;20453;-88
2023/03/13 11:33:29;;;;;;;2.00;1.50;;;;;;;15.56;82.96;155358.84;5060230;28;20485;-88
2023/03/13 11:36:01;;;;;;;1.77;1.20;;;;;;;15.56;84.89;155358.84;5048099;28;20529;-88
2023/03/13 11:38:33;;;;;;;3.23;1.50;;;;;;;15.58;85.57;155364.03;5058680;28;20459;-90